Time;durP1;ratioP1;P1;durP2;ratioP2;P2;SDS_P1;SDS_P2;PMS_P1;PMS_P2;Temp;Humidity;BMP_temperature;BMP_pressure;BME280_temperature;BME280_humidity;BME280_pressure;Samples;Min_cycle;Max_cycle;Signal;HPM_P1;HPM_P2
2023/07/21 00:00:19;;;;;;;15.03;13.53;;;15.80;99.90;;;;;;5095148;28;20694;-87
2023/07/21 00:02:45;;;;;;;15.90;14.27;;;15.80;99.90;;;;;;5077096;28;20576;-87
2023/07/21 00:05:12;;;;;;;16.53;14.17;;;15.80;99.90;;;;;;5077157;28;20238;-87
2023/07/21 00:07:37;;;;;;;15.30;13.80;;;15.70;99.90;;;;;;5077113;28;20636;-87
2023/07/21 00:10:10;;;;;;;17.13;14.23;;;15.80;99.90;;;;;;5074913;28;20208;-87
2023/07/21 00:12:42;;;;;;;16.63;13.80;;;15.80;99.90;;;;;;5076814;28;20197;-87
2023/07/21 00:15:10;;;;;;;15.53;13.93;;;15.90;99.90;;;;;;5076751;28;20788;-87
2023/07/21 00:17:37;;;;;;;15.33;13.77;;;15.80;99.90;;;;;;5094834;28;20713;-87
2023/07/21 00:20:11;;;;;;;18.50;14.87;;;15.90;99.90;;;;;;5076796;28;20177;-87
2023/07/21 00:22:37;;;;;;;15.93;14.33;;;15.90;99.90;;;;;;5076223;28;20204;-87
2023/07/21 00:25:05;;;;;;;20.10;16.03;;;15.80;99.90;;;;;;5076686;28;20710;-87
2023/07/21 00:27:31;;;;;;;16.73;14.63;;;15.90;99.90;;;;;;5075071;28;20268;-87
2023/07/21 00:29:57;;;;;;;16.87;13.77;;;15.90;99.90;;;;;;5075942;28;20173;-87
2023/07/21 00:32:22;;;;;;;16.00;14.40;;;15.90;99.90;;;;;;5076894;28;20196;-87
2023/07/21 00:34:50;;;;;;;15.97;14.20;;;15.90;99.90;;;;;;5077445;28;20180;-87
2023/07/21 00:37:17;;;;;;;13.90;12.50;;;15.90;99.90;;;;;;5103514;28;20154;-85
2023/07/21 00:39:44;;;;;;;16.67;14.53;;;15.90;99.90;;;;;;5103591;28;20183;-85
2023/07/21 00:42:12;;;;;;;16.33;13.43;;;15.80;99.90;;;;;;5102347;28;20687;-86
2023/07/21 00:44:38;;;;;;;16.20;14.53;;;15.80;99.90;;;;;;5068061;28;20216;-87
2023/07/21 00:47:04;;;;;;;15.73;13.50;;;15.70;99.90;;;;;;5041113;28;20178;-87
2023/07/21 00:49:33;;;;;;;15.47;13.87;;;15.60;99.90;;;;;;5083927;28;20264;-86
2023/07/21 00:51:59;;;;;;;15.87;14.17;;;15.50;99.90;;;;;;5075495;28;20211;-87
2023/07/21 00:54:25;;;;;;;16.90;14.77;;;15.50;99.90;;;;;;5076633;28;20189;-85
2023/07/21 00:56:53;;;;;;;15.90;13.67;;;15.60;99.90;;;;;;5076526;28;20173;-87
2023/07/21 00:59:20;;;;;;;16.97;15.23;;;15.60;99.90;;;;;;5075868;28;20245;-87
2023/07/21 01:01:45;;;;;;;15.47;13.63;;;15.60;99.90;;;;;;5089423;22;20177;-72
2023/07/21 01:04:11;;;;;;;16.80;14.97;;;15.60;99.90;;;;;;5072202;28;20268;-73
2023/07/21 01:06:39;;;;;;;16.77;15.00;;;15.60;99.90;;;;;;5055275;28;20265;-72
2023/07/21 01:09:06;;;;;;;18.07;15.87;;;15.50;99.90;;;;;;5073303;28;20198;-73
2023/07/21 01:11:34;;;;;;;17.30;15.33;;;15.50;99.90;;;;;;5072006;28;20228;-73
2023/07/21 01:14:04;;;;;;;19.43;15.60;;;15.40;99.90;;;;;;5072715;28;20295;-72
2023/07/21 01:16:34;;;;;;;18.23;15.43;;;15.30;99.90;;;;;;5055630;28;20170;-71
2023/07/21 01:19:01;;;;;;;17.97;16.23;;;15.30;99.90;;;;;;5073934;28;20174;-71
2023/07/21 01:21:46;;;;;;;17.93;16.13;;;15.30;99.90;;;;;;5054607;28;20178;-71
2023/07/21 01:24:37;;;;;;;17.67;15.80;;;15.30;99.90;;;;;;5072613;28;20224;-71
2023/07/21 01:27:04;;;;;;;17.87;16.07;;;15.30;99.90;;;;;;5072671;28;20641;-71
2023/07/21 01:29:34;;;;;;;19.00;16.30;;;15.40;99.90;;;;;;5072537;28;20168;-72
2023/07/21 01:32:03;;;;;;;17.37;15.57;;;15.50;99.90;;;;;;5055084;28;20166;-73
2023/07/21 01:34:31;;;;;;;18.70;16.70;;;15.50;99.90;;;;;;5072631;28;20306;-72
2023/07/21 01:36:58;;;;;;;18.17;16.27;;;15.50;99.90;;;;;;5055458;28;20174;-72
2023/07/21 01:39:24;;;;;;;20.73;16.63;;;15.50;99.90;;;;;;5072387;28;20661;-73
2023/07/21 01:41:50;;;;;;;17.83;15.43;;;15.60;99.90;;;;;;5072075;28;20209;-71
2023/07/21 01:44:15;;;;;;;20.93;16.13;;;15.60;99.90;;;;;;5072214;28;20604;-71
2023/07/21 01:46:41;;;;;;;19.03;17.00;;;15.60;99.90;;;;;;5054341;28;20541;-71
2023/07/21 01:49:07;;;;;;;16.30;14.57;;;15.60;99.90;;;;;;5072233;28;20205;-72
2023/07/21 01:51:34;;;;;;;19.17;16.40;;;15.50;99.90;;;;;;5071924;28;20171;-71
2023/07/21 01:54:07;;;;;;;21.30;17.87;;;15.50;99.90;;;;;;5053966;28;20237;-71
2023/07/21 01:56:43;;;;;;;22.03;17.80;;;15.50;99.90;;;;;;5091324;28;20189;-72
2023/07/21 01:59:11;;;;;;;20.13;17.60;;;15.50;99.90;;;;;;5092143;28;20180;-71
2023/07/21 02:01:38;;;;;;;21.43;17.00;;;15.50;99.90;;;;;;5091681;28;20172;-71
2023/07/21 02:04:04;;;;;;;22.73;19.40;;;15.50;99.90;;;;;;5073563;28;20247;-71
2023/07/21 02:06:31;;;;;;;20.43;18.30;;;15.50;99.90;;;;;;5074377;28;20667;-71
2023/07/21 02:08:57;;;;;;;22.30;18.57;;;15.50;99.90;;;;;;5091952;28;20162;-71
2023/07/21 02:11:23;;;;;;;25.50;19.50;;;15.50;99.90;;;;;;5090754;28;20185;-71
2023/07/21 02:13:48;;;;;;;23.60;18.83;;;15.50;99.90;;;;;;5090120;28;20566;-72
2023/07/21 02:16:14;;;;;;;22.53;19.00;;;15.50;99.90;;;;;;5072998;28;20173;-71
2023/07/21 02:18:41;;;;;;;22.57;18.93;;;15.50;99.90;;;;;;5091949;28;20184;-71
2023/07/21 02:21:07;;;;;;;24.20;20.27;;;15.60;99.90;;;;;;5091951;28;20491;-73
2023/07/21 02:23:32;;;;;;;22.80;19.43;;;15.60;99.90;;;;;;5091420;28;20629;-71
2023/07/21 02:25:59;;;;;;;23.50;19.13;;;15.70;99.90;;;;;;5073601;28;20204;-72
2023/07/21 02:28:24;;;;;;;23.80;19.23;;;15.80;99.90;;;;;;5091963;28;20197;-72
2023/07/21 02:31:04;;;;;;;24.13;19.83;;;15.80;99.90;;;;;;5090122;28;20570;-72
2023/07/21 02:33:30;;;;;;;20.97;18.60;;;15.90;99.90;;;;;;5091426;28;20172;-71
2023/07/21 02:35:58;;;;;;;22.67;19.03;;;15.90;99.90;;;;;;5091656;28;20195;-72
2023/07/21 02:38:24;;;;;;;21.37;18.40;;;15.90;99.90;;;;;;5091233;28;20652;-72
2023/07/21 02:40:50;;;;;;;21.87;18.47;;;15.90;99.90;;;;;;5091684;28;20169;-72
2023/07/21 02:43:17;;;;;;;27.20;18.57;;;15.90;99.90;;;;;;5091193;28;20193;-71
2023/07/21 02:45:49;;;;;;;21.40;18.50;;;15.80;99.90;;;;;;5091649;28;20166;-71
2023/07/21 02:48:16;;;;;;;21.87;18.33;;;15.80;99.90;;;;;;5071455;28;20632;-72
2023/07/21 02:50:42;;;;;;;23.93;19.70;;;15.80;99.90;;;;;;5073196;28;20170;-72
2023/07/21 02:53:08;;;;;;;20.83;18.00;;;15.80;99.90;;;;;;5091112;28;20166;-71
2023/07/21 02:55:33;;;;;;;18.77;16.47;;;15.80;99.90;;;;;;5091320;28;20201;-71
2023/07/21 02:57:59;;;;;;;20.87;17.03;;;15.80;99.90;;;;;;5091381;28;20169;-72
2023/07/21 03:00:25;;;;;;;21.73;16.90;;;15.90;99.90;;;;;;5091705;28;20329;-72
2023/07/21 03:02:50;;;;;;;19.10;16.00;;;15.80;99.90;;;;;;5091064;28;20184;-71
2023/07/21 03:05:16;;;;;;;19.03;17.07;;;15.80;99.90;;;;;;5089684;28;20205;-71
2023/07/21 03:07:42;;;;;;;19.03;16.90;;;15.70;99.90;;;;;;5091144;28;20177;-72
2023/07/21 03:10:12;;;;;;;20.40;17.20;;;15.80;99.90;;;;;;5073112;28;20173;-71
2023/07/21 03:12:38;;;;;;;22.17;17.63;;;15.80;99.90;;;;;;5091105;28;20165;-71
2023/07/21 03:15:05;;;;;;;23.63;18.27;;;15.70;99.90;;;;;;5091272;28;20219;-71
2023/07/21 03:17:32;;;;;;;23.87;19.67;;;15.70;99.90;;;;;;5091238;28;20224;-72
2023/07/21 03:19:59;;;;;;;26.43;19.50;;;15.60;99.90;;;;;;5091225;28;20218;-71
2023/07/21 03:22:24;;;;;;;22.20;18.13;;;15.70;99.90;;;;;;5089569;28;20244;-71
2023/07/21 03:24:50;;;;;;;24.27;19.10;;;15.60;99.90;;;;;;5091056;28;20201;-71
2023/07/21 03:27:16;;;;;;;20.03;17.90;;;15.60;99.90;;;;;;5092429;28;20169;-71
2023/07/21 03:29:42;;;;;;;24.63;19.80;;;15.60;99.90;;;;;;5094901;28;20645;-71
2023/07/21 03:32:08;;;;;;;29.90;20.57;;;15.60;99.90;;;;;;5088529;28;20176;-71
2023/07/21 03:34:35;;;;;;;24.10;19.80;;;15.60;99.90;;;;;;5074958;28;20198;-70
2023/07/21 03:37:04;;;;;;;26.67;21.27;;;15.70;99.90;;;;;;5074707;28;20170;-71
2023/07/21 03:39:30;;;;;;;23.20;19.93;;;15.70;99.90;;;;;;5074617;28;20540;-71
2023/07/21 03:41:57;;;;;;;26.97;23.00;;;15.70;99.90;;;;;;5074298;28;20260;-72
2023/07/21 03:44:22;;;;;;;28.13;22.03;;;15.70;99.90;;;;;;5074667;28;20259;-71
2023/07/21 03:46:48;;;;;;;30.27;22.27;;;15.70;99.90;;;;;;5075650;28;20517;-71
2023/07/21 03:49:13;;;;;;;28.73;22.10;;;15.70;99.90;;;;;;5074536;28;20174;-72
2023/07/21 03:51:40;;;;;;;31.33;22.33;;;15.70;99.90;;;;;;5074117;28;20611;-72
2023/07/21 03:54:05;;;;;;;25.20;20.73;;;15.70;99.90;;;;;;5074082;28;20276;-73
2023/07/21 03:56:31;;;;;;;27.37;21.10;;;15.70;99.90;;;;;;5073234;28;20261;-72
2023/07/21 03:58:58;;;;;;;24.53;20.20;;;15.60;99.90;;;;;;5073058;28;20206;-72
2023/07/21 04:01:24;;;;;;;26.10;21.03;;;15.60;99.90;;;;;;5073015;28;20170;-72
2023/07/21 04:03:50;;;;;;;23.63;20.93;;;15.60;99.90;;;;;;5073322;28;20198;-72
2023/07/21 04:06:18;;;;;;;27.93;21.47;;;15.70;99.90;;;;;;5057326;28;20662;-71
2023/07/21 04:08:43;;;;;;;28.17;19.97;;;15.80;99.90;;;;;;5056277;28;20257;-70
2023/07/21 04:11:09;;;;;;;27.23;21.20;;;15.80;99.90;;;;;;5056064;28;20312;-71
2023/07/21 04:13:34;;;;;;;30.70;20.73;;;15.90;99.90;;;;;;5055772;28;20205;-72
2023/07/21 04:16:00;;;;;;;25.60;20.37;;;15.90;99.90;;;;;;5056123;28;20178;-72
2023/07/21 04:18:26;;;;;;;27.37;20.47;;;15.90;99.90;;;;;;5056060;28;20182;-73
2023/07/21 04:20:51;;;;;;;25.13;20.13;;;15.90;99.90;;;;;;5082061;28;20181;-73
2023/07/21 04:23:18;;;;;;;29.87;20.87;;;16.00;99.90;;;;;;5073319;28;20205;-72
2023/07/21 04:25:45;;;;;;;24.77;19.80;;;16.00;99.90;;;;;;5073604;28;20162;-72
2023/07/21 04:28:10;;;;;;;25.70;20.13;;;16.00;99.90;;;;;;5073446;28;20166;-71
2023/07/21 04:30:36;;;;;;;24.73;20.20;;;16.00;99.90;;;;;;5073630;28;20526;-71
2023/07/21 04:33:01;;;;;;;29.20;21.20;;;16.00;99.90;;;;;;5073010;28;20257;-72
2023/07/21 04:35:27;;;;;;;27.33;19.93;;;16.00;99.90;;;;;;5073310;28;20679;-72
2023/07/21 04:37:53;;;;;;;25.03;20.00;;;16.00;99.90;;;;;;5073433;28;20243;-73
2023/07/21 04:40:20;;;;;;;27.33;20.27;;;16.00;99.90;;;;;;5071617;28;20625;-70
2023/07/21 04:42:46;;;;;;;25.53;20.37;;;16.00;99.90;;;;;;5072624;28;20249;-71
2023/07/21 04:45:11;;;;;;;23.97;20.13;;;16.00;99.90;;;;;;5071734;28;20217;-72
2023/07/21 04:47:41;;;;;;;28.07;21.57;;;16.00;99.90;;;;;;5054876;28;20260;-71
2023/07/21 04:50:08;;;;;;;21.27;19.07;;;16.00;99.90;;;;;;5072485;28;20170;-71
2023/07/21 04:52:36;;;;;;;26.97;20.77;;;16.10;99.90;;;;;;5072792;28;20174;-71
2023/07/21 04:55:03;;;;;;;26.27;20.27;;;16.20;99.90;;;;;;5074387;28;20243;-72
2023/07/21 04:57:29;;;;;;;29.77;20.03;;;16.20;99.90;;;;;;5073292;28;20282;-73
2023/07/21 04:59:56;;;;;;;27.37;20.83;;;16.30;99.90;;;;;;5073080;28;20654;-73
2023/07/21 05:02:24;;;;;;;25.50;20.03;;;16.40;99.90;;;;;;5072550;28;20186;-73
2023/07/21 05:04:49;;;;;;;29.30;21.70;;;16.50;99.90;;;;;;5073019;28;20734;-72
2023/07/21 05:07:15;;;;;;;26.13;19.40;;;16.50;99.90;;;;;;5073066;28;20510;-73
2023/07/21 05:09:41;;;;;;;22.90;19.00;;;16.60;99.90;;;;;;5072979;28;20529;-73
2023/07/21 05:12:07;;;;;;;26.53;19.00;;;16.60;99.90;;;;;;5074016;28;20301;-73
2023/07/21 05:14:32;;;;;;;20.70;18.33;;;16.70;99.90;;;;;;5073092;28;20720;-72
2023/07/21 05:16:58;;;;;;;24.00;18.53;;;16.80;99.90;;;;;;5072518;28;20178;-73
2023/07/21 05:19:23;;;;;;;25.50;17.97;;;16.80;99.90;;;;;;5072964;28;20166;-73
2023/07/21 05:21:49;;;;;;;21.73;18.40;;;16.90;99.90;;;;;;5072069;28;20645;-73
2023/07/21 05:24:14;;;;;;;21.87;18.33;;;17.00;99.90;;;;;;5072823;28;20202;-72
2023/07/21 05:26:40;;;;;;;19.63;17.07;;;17.20;99.90;;;;;;5072684;28;20511;-72
2023/07/21 05:29:06;;;;;;;19.13;16.50;;;17.30;99.90;;;;;;5055362;28;20174;-72
2023/07/21 05:31:31;;;;;;;21.27;17.43;;;17.50;99.90;;;;;;5072748;28;20219;-73
2023/07/21 05:33:57;;;;;;;20.30;16.50;;;17.80;99.90;;;;;;5072100;28;20556;-72
2023/07/21 05:36:24;;;;;;;17.17;15.37;;;17.90;99.90;;;;;;5072595;28;20180;-72
2023/07/21 05:38:51;;;;;;;18.27;14.80;;;18.10;99.90;;;;;;5072239;28;20224;-72
2023/07/21 05:41:18;;;;;;;17.53;15.37;;;18.20;99.90;;;;;;5054179;28;20598;-73
2023/07/21 05:43:44;;;;;;;17.83;13.60;;;18.40;99.90;;;;;;5053958;28;20202;-73
2023/07/21 05:46:10;;;;;;;18.23;14.87;;;18.50;99.90;;;;;;5054339;28;20261;-73
2023/07/21 05:48:36;;;;;;;19.20;15.43;;;18.50;99.90;;;;;;5073314;28;20174;-73
2023/07/21 05:51:02;;;;;;;18.60;13.83;;;18.50;99.90;;;;;;5071782;28;20173;-72
2023/07/21 05:53:28;;;;;;;16.00;14.00;;;18.70;99.90;;;;;;5071742;28;20185;-73
2023/07/21 05:55:54;;;;;;;17.67;14.77;;;18.80;99.90;;;;;;5071984;28;20278;-72
2023/07/21 05:58:22;;;;;;;17.27;12.80;;;18.90;99.90;;;;;;5072162;28;20668;-72
2023/07/21 06:00:48;;;;;;;21.90;14.10;;;19.00;99.90;;;;;;5072105;28;20181;-72
2023/07/21 06:03:14;;;;;;;20.27;13.40;;;19.10;99.90;;;;;;5071486;28;20202;-72
2023/07/21 06:05:40;;;;;;;16.03;11.83;;;19.30;99.90;;;;;;5072831;28;20174;-72
2023/07/21 06:08:06;;;;;;;16.08;12.85;;;19.30;99.90;;;;;;5054455;28;20283;-73
2023/07/21 06:10:32;;;;;;;17.88;14.23;;;19.60;99.90;;;;;;5071345;28;20169;-72
2023/07/21 06:12:58;;;;;;;17.27;12.80;;;19.60;99.90;;;;;;5071454;28;20171;-72
2023/07/21 06:15:26;;;;;;;15.20;13.68;;;19.70;99.90;;;;;;5071831;28;20661;-71
2023/07/21 06:17:52;;;;;;;19.15;13.00;;;19.90;99.90;;;;;;5071601;28;20205;-72
2023/07/21 06:20:20;;;;;;;14.88;12.18;;;20.20;99.90;;;;;;5071933;28;20181;-72
2023/07/21 06:22:49;;;;;;;13.27;11.88;;;20.30;99.90;;;;;;5071541;28;20162;-68
2023/07/21 06:25:15;;;;;;;12.07;10.82;;;20.60;99.90;;;;;;5071442;28;20197;-72
2023/07/21 06:27:40;;;;;;;15.27;12.07;;;20.90;99.90;;;;;;5074724;28;20166;-70
2023/07/21 06:30:06;;;;;;;14.68;13.20;;;21.30;99.90;;;;;;5090051;28;20189;-70
2023/07/21 06:32:32;;;;;;;15.25;11.40;;;21.60;99.90;;;;;;5091593;28;20180;-71
2023/07/21 06:34:57;;;;;;;16.70;10.80;;;21.90;99.90;;;;;;5080960;28;20277;-71
2023/07/21 06:37:23;;;;;;;11.85;9.88;;;22.00;99.90;;;;;;5072022;28;20171;-71
2023/07/21 06:39:50;;;;;;;13.07;9.75;;;22.40;99.90;;;;;;5071360;28;20210;-70
2023/07/21 06:42:16;;;;;;;11.50;8.68;;;22.60;99.90;;;;;;5069666;28;20196;-71
2023/07/21 06:44:42;;;;;;;12.38;9.88;;;22.80;99.90;;;;;;5070425;28;20198;-70
2023/07/21 06:47:08;;;;;;;12.75;8.95;;;22.80;99.90;;;;;;5070562;28;20162;-70
2023/07/21 06:49:33;;;;;;;15.05;10.50;;;23.00;99.90;;;;;;5070503;28;20239;-70
2023/07/21 06:51:59;;;;;;;13.35;9.15;;;22.90;99.90;;;;;;5070913;28;20509;-69
2023/07/21 06:54:29;;;;;;;13.45;9.95;;;22.90;99.90;;;;;;5071273;28;20247;-69
2023/07/21 06:56:55;;;;;;;15.73;10.27;;;22.90;99.90;;;;;;5071145;28;20174;-71
2023/07/21 06:59:20;;;;;;;14.52;9.90;;;23.00;99.90;;;;;;5071298;28;20242;-70
2023/07/21 07:01:46;;;;;;;11.98;10.48;;;23.10;99.90;;;;;;5072113;28;20170;-70
2023/07/21 07:04:12;;;;;;;11.90;10.68;;;23.10;99.90;;;;;;5097164;28;20213;-70
2023/07/21 07:06:37;;;;;;;12.80;11.40;;;22.80;99.90;;;;;;5098243;28;20161;-69
2023/07/21 07:09:03;;;;;;;15.00;10.15;;;22.70;99.90;;;;;;5097947;28;20196;-70
2023/07/21 07:11:28;;;;;;;11.48;10.38;;;22.80;99.90;;;;;;5097957;28;20227;-71
2023/07/21 07:13:54;;;;;;;14.10;11.98;;;23.10;99.90;;;;;;5097699;28;20541;-70
2023/07/21 07:16:19;;;;;;;13.98;10.43;;;23.70;99.90;;;;;;5098908;28;20628;-70
2023/07/21 07:18:45;;;;;;;11.07;9.05;;;24.00;99.90;;;;;;5098095;28;20256;-71
2023/07/21 07:21:11;;;;;;;10.05;9.07;;;24.20;99.90;;;;;;5097935;28;20222;-70
2023/07/21 07:23:36;;;;;;;12.40;10.40;;;24.50;99.90;;;;;;5097917;28;20291;-70
2023/07/21 07:26:02;;;;;;;13.55;10.10;;;24.40;99.90;;;;;;5097862;28;20210;-70
2023/07/21 07:28:27;;;;;;;12.05;10.18;;;24.60;99.90;;;;;;5095933;28;20173;-70
2023/07/21 07:30:53;;;;;;;13.95;11.02;;;24.60;99.90;;;;;;5097838;28;20173;-70
2023/07/21 07:33:19;;;;;;;14.85;10.98;;;24.50;99.90;;;;;;5079212;28;20180;-70
2023/07/21 07:35:52;;;;;;;12.18;10.77;;;24.40;99.90;;;;;;5078777;28;20529;-70
2023/07/21 07:38:20;;;;;;;12.80;10.85;;;24.70;99.90;;;;;;5077772;28;20205;-70
2023/07/21 07:40:47;;;;;;;11.77;10.57;;;24.90;99.90;;;;;;5077569;28;20649;-70
2023/07/21 07:43:13;;;;;;;11.35;9.75;;;25.00;99.90;;;;;;5077084;28;20566;-69
2023/07/21 07:45:39;;;;;;;10.88;9.68;;;25.20;99.90;;;;;;5077530;28;20626;-71
2023/07/21 07:48:05;;;;;;;11.10;9.88;;;25.50;99.90;;;;;;5077436;28;20173;-69
2023/07/21 07:50:30;;;;;;;12.02;10.93;;;25.90;99.90;;;;;;5077715;28;20563;-71
2023/07/21 07:52:59;;;;;;;10.43;9.52;;;26.30;99.90;;;;;;5077211;28;20173;-71
2023/07/21 07:55:25;;;;;;;10.38;9.48;;;26.80;99.90;;;;;;5090029;28;20204;-70
2023/07/21 07:57:51;;;;;;;10.63;9.65;;;27.00;99.90;;;;;;5072872;28;20173;-70
2023/07/21 08:00:17;;;;;;;10.35;9.45;;;27.00;99.90;;;;;;5097239;28;20234;-70
2023/07/21 08:02:43;;;;;;;12.45;11.00;;;27.10;99.90;;;;;;5097350;28;20181;-71
2023/07/21 08:05:10;;;;;;;11.77;10.68;;;26.90;99.90;;;;;;5097477;28;20212;-71
2023/07/21 08:07:36;;;;;;;11.88;10.70;;;26.60;99.90;;;;;;5079498;28;20227;-71
2023/07/21 08:10:03;;;;;;;13.00;11.65;;;26.50;99.90;;;;;;5097213;28;20563;-71
2023/07/21 08:12:29;;;;;;;14.40;12.90;;;26.20;99.90;;;;;;5097967;28;20777;-70
2023/07/21 08:14:54;;;;;;;13.73;12.38;;;26.10;99.90;;;;;;5094717;28;20197;-71
2023/07/21 08:17:20;;;;;;;13.77;12.38;;;26.20;99.90;;;;;;5094631;28;20688;-71
2023/07/21 08:19:45;;;;;;;11.95;10.75;;;26.30;99.90;;;;;;5094486;28;20169;-71
2023/07/21 08:22:11;;;;;;;14.10;12.77;;;26.20;99.90;;;;;;5093881;28;20169;-70
2023/07/21 08:24:37;;;;;;;14.25;12.88;;;25.70;99.90;;;;;;5094749;28;20197;-71
2023/07/21 08:27:03;;;;;;;16.75;15.30;;;25.40;99.90;;;;;;5094088;28;20200;-71
2023/07/21 08:29:29;;;;;;;13.50;12.10;;;25.30;99.90;;;;;;5094172;28;20165;-71
2023/07/21 08:31:54;;;;;;;12.10;10.90;;;25.10;99.90;;;;;;5093769;28;20177;-71
2023/07/21 08:34:20;;;;;;;10.43;9.38;;;24.90;99.90;;;;;;5094307;28;20745;-71
2023/07/21 08:36:45;;;;;;;10.88;9.70;;;24.90;99.90;;;;;;5094332;28;20188;-71
2023/07/21 08:39:11;;;;;;;12.52;9.70;;;24.90;99.90;;;;;;5093961;28;20204;-70
2023/07/21 08:41:45;;;;;;;10.07;8.95;;;24.80;99.90;;;;;;5093745;28;20269;-71
2023/07/21 08:44:13;;;;;;;9.98;9.07;;;24.80;99.90;;;;;;5093926;28;20228;-71
2023/07/21 08:46:39;;;;;;;11.45;9.02;;;24.70;99.90;;;;;;5093880;28;20165;-71
2023/07/21 08:49:06;;;;;;;11.23;8.48;;;24.50;99.90;;;;;;5093638;28;20507;-70
2023/07/21 08:51:32;;;;;;;10.68;8.82;;;24.30;99.90;;;;;;5075392;28;20170;-71
2023/07/21 08:53:57;;;;;;;10.40;9.02;;;24.20;99.90;;;;;;5093298;28;20187;-71
2023/07/21 08:56:24;;;;;;;10.90;9.30;;;24.30;99.90;;;;;;5093726;28;20165;-71
2023/07/21 08:58:49;;;;;;;9.65;8.70;;;24.40;99.90;;;;;;5093486;28;20611;-70
2023/07/21 09:01:16;;;;;;;11.57;9.82;;;24.60;99.90;;;;;;5092881;28;20173;-69
2023/07/21 09:03:46;;;;;;;9.68;8.68;;;24.80;99.90;;;;;;5074921;28;20209;-71
2023/07/21 09:06:14;;;;;;;13.60;10.77;;;25.00;99.90;;;;;;5093469;28;20180;-70
2023/07/21 09:08:40;;;;;;;10.48;9.57;;;25.30;99.90;;;;;;5093422;28;20683;-71
2023/07/21 09:11:08;;;;;;;10.73;9.82;;;25.40;99.90;;;;;;5092756;28;20205;-72
2023/07/21 09:13:33;;;;;;;10.45;8.90;;;26.00;99.90;;;;;;5092931;28;20243;-71
2023/07/21 09:16:06;;;;;;;10.43;9.10;;;26.40;99.90;;;;;;5093005;28;20181;-71
2023/07/21 09:18:40;;;;;;;11.45;8.77;;;27.00;99.90;;;;;;5093238;28;20175;-71
2023/07/21 09:21:07;;;;;;;9.18;8.38;;;27.60;99.90;;;;;;5093034;28;20596;-71
2023/07/21 09:23:33;;;;;;;23.67;21.98;;;28.20;99.90;;;;;;5074629;28;20205;-71
2023/07/21 09:25:59;;;;;;;11.60;7.72;;;28.20;99.90;;;;;;5092365;28;20172;-71
2023/07/21 09:28:40;;;;;;;9.82;8.93;;;27.60;99.90;;;;;;5074862;28;20176;-70
2023/07/21 09:31:06;;;;;;;12.48;11.13;;;27.30;99.90;;;;;;5092895;28;20166;-71
2023/07/21 09:33:38;;;;;;;13.00;11.90;;;26.80;99.90;;;;;;5092650;28;20256;-70
2023/07/21 09:36:08;;;;;;;11.82;10.77;;;26.20;99.90;;;;;;5074499;28;20188;-71
2023/07/21 09:38:36;;;;;;;9.02;8.00;;;25.70;99.90;;;;;;5092856;28;20169;-70
2023/07/21 09:41:17;;;;;;;9.15;8.35;;;25.30;99.90;;;;;;5092680;28;20176;-71
2023/07/21 09:43:43;;;;;;;10.65;8.10;;;24.80;99.90;;;;;;5074406;28;20637;-69
2023/07/21 09:46:09;;;;;;;11.10;9.98;;;24.80;99.90;;;;;;5074384;28;20212;-70
2023/07/21 09:48:36;;;;;;;8.25;7.55;;;24.90;99.90;;;;;;5092764;28;20170;-69
2023/07/21 09:51:04;;;;;;;10.50;8.63;;;25.40;99.90;;;;;;5092536;28;20166;-70
2023/07/21 09:53:34;;;;;;;11.13;9.90;;;26.00;99.90;;;;;;5074013;28;20173;-71
2023/07/21 09:56:01;;;;;;;9.13;8.23;;;26.60;99.90;;;;;;5092331;28;20169;-71
2023/07/21 09:58:29;;;;;;;9.60;7.47;;;27.50;99.90;;;;;;5092546;28;20280;-71
2023/07/21 10:01:01;;;;;;;7.97;7.32;;;28.10;99.90;;;;;;5091402;28;20169;-71
2023/07/21 10:03:26;;;;;;;9.50;8.50;;;28.40;99.90;;;;;;5091798;28;20686;-70
2023/07/21 10:05:53;;;;;;;8.70;7.80;;;28.20;99.90;;;;;;5073988;28;20204;-71
2023/07/21 10:08:21;;;;;;;10.95;10.15;;;28.10;99.90;;;;;;5074044;28;20173;-70
2023/07/21 10:10:47;;;;;;;10.48;9.68;;;28.00;99.90;;;;;;5092174;28;20165;-72
2023/07/21 10:13:13;;;;;;;7.32;6.63;;;27.60;99.90;;;;;;5073647;28;20177;-71
2023/07/21 10:15:40;;;;;;;6.60;5.90;;;27.30;99.90;;;;;;5092016;28;20189;-71
2023/07/21 10:18:11;;;;;;;9.27;8.60;;;27.40;99.90;;;;;;5091888;28;20300;-71
2023/07/21 10:20:41;;;;;;;9.50;8.60;;;27.60;99.90;;;;;;5092028;28;20161;-71
2023/07/21 10:23:08;;;;;;;10.00;9.20;;;27.60;99.90;;;;;;5091593;28;20517;-71
2023/07/21 10:25:46;;;;;;;9.10;7.55;;;27.70;99.90;;;;;;5092279;28;20387;-71
2023/07/21 10:28:15;;;;;;;15.05;13.95;;;27.70;99.90;;;;;;5092005;28;20188;-72
2023/07/21 10:30:41;;;;;;;16.63;15.55;;;27.60;99.90;;;;;;5073908;28;20174;-71
2023/07/21 10:33:16;;;;;;;7.50;6.22;;;27.40;99.90;;;;;;5091566;28;20173;-71
2023/07/21 10:35:42;;;;;;;6.63;6.03;;;26.90;99.90;;;;;;5073668;28;20230;-71
2023/07/21 10:38:13;;;;;;;6.30;5.68;;;26.80;99.90;;;;;;5090878;28;20210;-70
2023/07/21 10:40:45;;;;;;;5.32;4.82;;;26.70;99.90;;;;;;5091863;28;20173;-71
2023/07/21 10:43:11;;;;;;;7.28;4.60;;;26.60;99.90;;;;;;5091268;28;20177;-71
2023/07/21 10:45:37;;;;;;;4.63;4.22;;;26.60;99.90;;;;;;5091574;28;20603;-72
2023/07/21 10:48:15;;;;;;;4.65;4.25;;;26.60;99.90;;;;;;5091442;28;20652;-71
2023/07/21 10:50:51;;;;;;;8.75;8.15;;;26.70;99.90;;;;;;5091654;28;20177;-72
2023/07/21 10:53:17;;;;;;;4.63;4.22;;;26.50;99.90;;;;;;5091161;28;20177;-71
2023/07/21 10:55:42;;;;;;;5.28;4.45;;;26.10;99.90;;;;;;5073543;28;20683;-71
2023/07/21 10:58:08;;;;;;;4.38;3.90;;;26.20;99.90;;;;;;5091248;28;20172;-71
2023/07/21 11:00:48;;;;;;;4.43;4.03;;;26.20;99.90;;;;;;5072922;28;20173;-71
2023/07/21 11:03:14;;;;;;;4.43;4.03;;;26.20;99.90;;;;;;5091066;28;20191;-71
2023/07/21 11:05:40;;;;;;;4.47;4.18;;;26.00;99.90;;;;;;5091518;28;20185;-69
2023/07/21 11:08:09;;;;;;;6.35;3.75;;;25.80;99.90;;;;;;5091199;28;20636;-70
2023/07/21 11:10:35;;;;;;;4.35;3.95;;;25.50;99.90;;;;;;5091492;28;20157;-71
2023/07/21 11:13:03;;;;;;;5.20;3.72;;;25.60;99.90;;;;;;5091031;28;20215;-71
2023/07/21 11:15:29;;;;;;;4.10;3.80;;;25.90;99.90;;;;;;5091319;28;20231;-71
2023/07/21 11:18:04;;;;;;;3.60;3.30;;;26.30;99.90;;;;;;5091208;28;20173;-71
2023/07/21 11:20:30;;;;;;;4.07;3.78;;;26.30;99.90;;;;;;5091355;28;20706;-71
2023/07/21 11:22:57;;;;;;;4.55;4.13;;;26.10;99.90;;;;;;5090984;28;20637;-71
2023/07/21 11:25:23;;;;;;;5.00;4.45;;;26.30;99.90;;;;;;5091359;28;20236;-71
2023/07/21 11:27:48;;;;;;;7.25;6.63;;;26.50;99.90;;;;;;5072982;28;20197;-70
2023/07/21 11:30:18;;;;;;;4.88;4.35;;;26.20;99.90;;;;;;5073125;28;20647;-72
2023/07/21 11:32:44;;;;;;;4.78;4.35;;;26.20;99.90;;;;;;5090929;28;20181;-71
2023/07/21 11:35:10;;;;;;;5.72;5.38;;;26.20;99.90;;;;;;5091080;28;20196;-71
2023/07/21 11:37:44;;;;;;;6.63;5.95;;;26.30;99.90;;;;;;5091513;28;20652;-71
2023/07/21 11:40:22;;;;;;;11.95;11.13;;;26.40;99.90;;;;;;5091013;28;20229;-70
2023/07/21 11:42:49;;;;;;;8.25;7.65;;;26.60;99.90;;;;;;5072625;28;20181;-72
2023/07/21 11:45:33;;;;;;;4.43;4.13;;;26.90;99.90;;;;;;5091039;28;20604;-72
2023/07/21 11:48:00;;;;;;;3.92;3.47;;;26.80;99.90;;;;;;5091637;28;20169;-71
2023/07/21 11:50:28;;;;;;;4.70;4.40;;;26.60;99.90;;;;;;5076829;28;20173;-71
2023/07/21 11:52:53;;;;;;;5.75;5.30;;;26.10;99.90;;;;;;5094515;28;20174;-71
2023/07/21 11:55:19;;;;;;;4.35;4.15;;;25.70;99.90;;;;;;5094784;28;20246;-71
2023/07/21 11:57:44;;;;;;;5.28;4.93;;;25.50;99.90;;;;;;5094785;28;20211;-71
2023/07/21 12:00:11;;;;;;;3.83;3.40;;;25.30;99.90;;;;;;5093687;28;20184;-71
2023/07/21 12:02:40;;;;;;;3.97;3.78;;;25.50;99.90;;;;;;5076380;28;20189;-71
2023/07/21 12:05:05;;;;;;;3.03;2.83;;;26.00;99.90;;;;;;5094392;28;20227;-71
2023/07/21 12:07:31;;;;;;;3.17;2.72;;;26.30;99.90;;;;;;5094658;28;20264;-71
2023/07/21 12:09:58;;;;;;;3.45;3.00;;;26.30;99.90;;;;;;5093692;28;20176;-71
2023/07/21 12:12:24;;;;;;;3.55;3.35;;;26.50;99.90;;;;;;5076059;28;20178;-71
2023/07/21 12:14:49;;;;;;;4.63;4.35;;;26.70;99.90;;;;;;5094414;28;20269;-70
2023/07/21 12:17:15;;;;;;;9.70;9.20;;;26.80;99.90;;;;;;5094419;28;20169;-71
2023/07/21 12:19:40;;;;;;;7.05;6.65;;;27.00;99.90;;;;;;5094663;28;20173;-71
2023/07/21 12:22:06;;;;;;;3.17;2.97;;;27.00;99.90;;;;;;5075624;28;20176;-70
2023/07/21 12:24:32;;;;;;;5.60;5.30;;;27.00;99.90;;;;;;5094194;28;20223;-70
2023/07/21 12:26:57;;;;;;;3.70;3.45;;;26.80;99.90;;;;;;5094296;28;20170;-69
2023/07/21 12:29:23;;;;;;;2.97;2.78;;;27.20;99.90;;;;;;5094200;28;20174;-71
2023/07/21 12:31:49;;;;;;;3.38;3.13;;;27.30;99.90;;;;;;5093802;28;20256;-69